Time;durP1;ratioP1;P1;durP2;ratioP2;P2;SDS_P1;SDS_P2;PMS_P1;PMS_P2;Temp;Humidity;BMP_temperature;BMP_pressure;BME280_temperature;BME280_humidity;BME280_pressure;Samples;Min_cycle;Max_cycle;Signal;HPM_P1;HPM_P2
2022/11/21 00:00:56;;;;;;;18.92;5.80;;;8.10;1.00;;;;;;6342467;22;20142;-83
2022/11/21 00:03:23;;;;;;;13.82;5.22;;;8.10;1.00;;;;;;6316286;22;20221;-83
2022/11/21 00:05:48;;;;;;;18.08;5.32;;;8.10;1.00;;;;;;6341433;22;20149;-82
2022/11/21 00:08:17;;;;;;;24.93;5.47;;;8.00;1.00;;;;;;6314017;22;20179;-83
2022/11/21 00:10:43;;;;;;;16.02;5.20;;;8.10;1.00;;;;;;6343203;22;20214;-83
2022/11/21 00:13:14;;;;;;;21.43;5.33;;;8.00;1.00;;;;;;6339508;22;20191;-84
2022/11/21 00:15:39;;;;;;;21.27;5.82;;;8.00;1.00;;;;;;6355527;22;20155;-84
2022/11/21 00:18:05;;;;;;;13.87;5.90;;;8.00;1.00;;;;;;6334404;22;20162;-84
2022/11/21 00:20:31;;;;;;;14.93;6.00;;;8.00;1.00;;;;;;6348685;22;20619;-82
2022/11/21 00:22:56;;;;;;;19.30;4.95;;;7.90;1.00;;;;;;6337563;22;20231;-82
2022/11/21 00:25:22;;;;;;;14.30;4.87;;;7.90;1.00;;;;;;6339186;22;20593;-82
2022/11/21 00:27:47;;;;;;;20.07;5.83;;;7.80;1.00;;;;;;6340834;22;20178;-82
2022/11/21 00:30:13;;;;;;;15.23;5.57;;;7.80;1.00;;;;;;6339641;22;20143;-83
2022/11/21 00:32:39;;;;;;;18.30;5.13;;;7.80;1.00;;;;;;6341383;22;20245;-84
2022/11/21 00:35:05;;;;;;;14.47;5.10;;;7.80;1.00;;;;;;6341578;22;20475;-82
2022/11/21 00:37:32;;;;;;;16.90;5.00;;;7.80;1.00;;;;;;6340815;22;20155;-81
2022/11/21 00:39:58;;;;;;;17.55;5.10;;;7.80;1.00;;;;;;6340771;22;20159;-82
2022/11/21 00:42:24;;;;;;;11.73;4.60;;;7.80;1.00;;;;;;6312765;22;20308;-83
2022/11/21 00:44:49;;;;;;;15.30;4.30;;;7.70;1.00;;;;;;6341873;22;20163;-82
2022/11/21 00:47:14;;;;;;;17.93;5.20;;;7.70;1.00;;;;;;6339494;22;20235;-83
2022/11/21 00:49:40;;;;;;;13.67;4.43;;;7.70;1.00;;;;;;6341418;22;20189;-83
2022/11/21 00:52:05;;;;;;;13.30;5.40;;;7.70;1.00;;;;;;6341120;22;20178;-82
2022/11/21 00:54:31;;;;;;;13.33;4.73;;;7.70;1.00;;;;;;6341255;22;20204;-82
2022/11/21 00:56:56;;;;;;;16.23;5.57;;;7.70;1.00;;;;;;6341291;22;20147;-83
2022/11/21 00:59:22;;;;;;;24.40;5.00;;;7.70;1.00;;;;;;6339141;22;20246;-82
2022/11/21 01:01:47;;;;;;;16.53;5.67;;;7.70;1.00;;;;;;6340664;22;20174;-83
2022/11/21 01:04:13;;;;;;;18.30;5.63;;;7.70;1.00;;;;;;6338761;22;20549;-83
2022/11/21 01:06:39;;;;;;;17.63;5.23;;;7.70;1.00;;;;;;6341236;22;20167;-82
2022/11/21 01:09:04;;;;;;;15.30;5.33;;;7.70;1.00;;;;;;6340508;22;20609;-82
2022/11/21 01:11:31;;;;;;;15.67;4.90;;;7.70;1.00;;;;;;6340336;22;20600;-82
2022/11/21 01:13:57;;;;;;;17.70;6.13;;;7.70;1.00;;;;;;6340968;22;20171;-83
2022/11/21 01:16:24;;;;;;;22.92;4.97;;;7.70;1.00;;;;;;6339524;22;20147;-82
2022/11/21 01:18:50;;;;;;;22.05;4.85;;;7.70;1.00;;;;;;6340381;22;20147;-83
2022/11/21 01:21:17;;;;;;;18.23;6.03;;;7.70;1.00;;;;;;6339336;22;20292;-83
2022/11/21 01:23:43;;;;;;;14.43;5.45;;;7.70;1.00;;;;;;6339996;22;20794;-83
2022/11/21 01:26:11;;;;;;;13.97;5.53;;;7.70;1.00;;;;;;6340901;22;20158;-83
2022/11/21 01:28:37;;;;;;;16.00;4.15;;;7.60;1.00;;;;;;6340837;22;20178;-83
2022/11/21 01:31:07;;;;;;;15.63;4.50;;;7.60;1.00;;;;;;6341004;22;20143;-82
2022/11/21 01:33:34;;;;;;;11.95;4.32;;;7.60;1.00;;;;;;6339249;22;20167;-83
2022/11/21 01:36:08;;;;;;;12.70;4.05;;;7.60;1.00;;;;;;6341872;22;20172;-83
2022/11/21 01:38:33;;;;;;;15.45;4.10;;;7.60;1.00;;;;;;6312210;22;20182;-82
2022/11/21 01:40:59;;;;;;;15.80;4.40;;;7.60;1.00;;;;;;6340971;22;20159;-82
2022/11/21 01:43:24;;;;;;;15.00;4.00;;;7.60;1.00;;;;;;6339983;22;20180;-82
2022/11/21 01:45:55;;;;;;;18.67;4.63;;;7.60;1.00;;;;;;6341194;22;20211;-82
2022/11/21 01:48:47;;;;;;;12.18;3.53;;;7.60;1.00;;;;;;6312170;22;20193;-83
2022/11/21 01:51:15;;;;;;;14.00;4.25;;;7.60;1.00;;;;;;6317520;22;20152;-82
2022/11/21 01:53:44;;;;;;;12.43;4.38;;;7.60;1.00;;;;;;6311832;22;20237;-82
2022/11/21 01:56:10;;;;;;;8.95;3.67;;;7.60;1.00;;;;;;6338265;22;20171;-82
2022/11/21 01:58:37;;;;;;;19.42;4.38;;;7.50;1.00;;;;;;6340484;22;20533;-82
2022/11/21 02:01:03;;;;;;;16.58;4.25;;;7.60;1.00;;;;;;6339653;22;20151;-82
2022/11/21 02:03:33;;;;;;;9.03;3.53;;;7.60;1.00;;;;;;6314701;22;20198;-83
2022/11/21 02:05:58;;;;;;;10.45;3.90;;;7.60;1.00;;;;;;6314699;22;20163;-82
2022/11/21 02:08:26;;;;;;;14.80;3.97;;;7.60;1.00;;;;;;6344369;22;20171;-83
2022/11/21 02:11:13;;;;;;;16.00;4.07;;;7.70;1.00;;;;;;6342608;22;20143;-84
2022/11/21 02:13:38;;;;;;;17.48;3.85;;;7.70;1.00;;;;;;6342628;22;20254;-83
2022/11/21 02:16:05;;;;;;;12.50;4.67;;;7.70;1.00;;;;;;6342135;22;20189;-82
2022/11/21 02:18:31;;;;;;;17.45;4.85;;;7.60;1.00;;;;;;6342782;22;20234;-83
2022/11/21 02:21:10;;;;;;;9.07;4.00;;;7.60;1.00;;;;;;6341532;22;20146;-83
2022/11/21 02:23:47;;;;;;;12.50;3.92;;;7.60;1.00;;;;;;6341873;22;20179;-83
2022/11/21 02:26:13;;;;;;;13.95;4.82;;;7.50;1.00;;;;;;6343955;22;20572;-83
2022/11/21 02:28:38;;;;;;;15.13;4.50;;;7.50;1.00;;;;;;6343472;22;20174;-82
2022/11/21 02:31:04;;;;;;;18.03;5.80;;;7.40;1.00;;;;;;6344183;22;20221;-83
2022/11/21 02:33:29;;;;;;;18.27;3.90;;;7.30;1.00;;;;;;6340651;22;20541;-83
2022/11/21 02:36:00;;;;;;;14.83;3.80;;;7.30;1.00;;;;;;6343383;22;20151;-84
2022/11/21 02:38:35;;;;;;;12.23;4.53;;;7.20;1.00;;;;;;6343302;22;20620;-83
2022/11/21 02:41:14;;;;;;;17.48;5.05;;;7.20;1.00;;;;;;6342831;22;20135;-83
2022/11/21 02:43:58;;;;;;;17.15;4.90;;;7.10;1.00;;;;;;6344124;22;20174;-83
2022/11/21 02:46:25;;;;;;;11.38;4.00;;;7.10;1.00;;;;;;6343544;22;20215;-83
2022/11/21 02:48:51;;;;;;;13.82;4.75;;;7.10;1.00;;;;;;6343462;22;20224;-83
2022/11/21 02:51:17;;;;;;;19.63;4.53;;;7.00;1.00;;;;;;6340244;22;20146;-83
2022/11/21 02:53:42;;;;;;;10.53;4.00;;;7.00;1.00;;;;;;6314698;22;20408;-83
2022/11/21 02:56:08;;;;;;;13.80;5.97;;;7.00;1.00;;;;;;6341111;22;20478;-83
2022/11/21 02:58:33;;;;;;;16.17;4.00;;;7.00;1.00;;;;;;6344285;22;20152;-83
2022/11/21 03:00:59;;;;;;;13.30;5.40;;;7.00;1.00;;;;;;6343809;22;20151;-84
2022/11/21 03:03:24;;;;;;;12.30;4.40;;;7.00;1.00;;;;;;6343334;22;20536;-84
2022/11/21 03:05:50;;;;;;;9.67;3.93;;;7.00;1.00;;;;;;6343070;22;20157;-83
2022/11/21 03:08:15;;;;;;;10.77;3.50;;;7.00;1.00;;;;;;6341357;22;20185;-82
2022/11/21 03:10:41;;;;;;;10.77;4.00;;;7.00;1.00;;;;;;6314573;22;20523;-82
2022/11/21 03:13:06;;;;;;;13.80;4.70;;;7.10;1.00;;;;;;6340883;22;20198;-83
2022/11/21 03:15:33;;;;;;;11.00;3.70;;;7.10;1.00;;;;;;6343827;22;20147;-84
2022/11/21 03:18:01;;;;;;;10.60;3.03;;;7.10;1.00;;;;;;6343277;22;20177;-83
2022/11/21 03:20:27;;;;;;;10.60;3.30;;;7.10;1.00;;;;;;6343960;22;20162;-83
2022/11/21 03:22:53;;;;;;;10.25;6.38;;;7.10;1.00;;;;;;6341402;22;20201;-82
2022/11/21 03:25:19;;;;;;;5.90;3.10;;;7.20;1.00;;;;;;6343001;22;20631;-83
2022/11/21 03:27:44;;;;;;;9.10;3.17;;;7.20;1.00;;;;;;6341930;22;20238;-83
2022/11/21 03:30:11;;;;;;;5.57;2.70;;;7.20;1.00;;;;;;6342838;22;20154;-83
2022/11/21 03:32:36;;;;;;;7.88;3.10;;;7.20;1.00;;;;;;6344033;22;20167;-83
2022/11/21 03:35:02;;;;;;;9.10;3.43;;;7.20;1.00;;;;;;6343702;22;20147;-84
2022/11/21 03:37:27;;;;;;;11.53;3.57;;;7.20;1.00;;;;;;6343998;22;20222;-84
2022/11/21 03:39:53;;;;;;;5.87;3.80;;;7.20;1.00;;;;;;6341509;22;20174;-83
2022/11/21 03:42:18;;;;;;;13.20;3.70;;;7.20;1.00;;;;;;6344378;22;20173;-83
2022/11/21 03:44:43;;;;;;;16.03;4.30;;;7.20;1.00;;;;;;6342277;22;20658;-80
2022/11/21 03:47:09;;;;;;;17.33;4.77;;;7.20;1.00;;;;;;6342873;22;20155;-83
2022/11/21 03:49:34;;;;;;;11.87;4.37;;;7.20;1.00;;;;;;6358949;22;20147;-84
2022/11/21 03:52:00;;;;;;;9.20;5.03;;;7.20;1.00;;;;;;6360470;22;20159;-82
2022/11/21 03:54:25;;;;;;;14.80;5.40;;;7.20;1.00;;;;;;6319515;22;20243;-82
2022/11/21 03:56:51;;;;;;;11.13;5.83;;;7.20;1.00;;;;;;6311277;22;20176;-82
2022/11/21 03:59:16;;;;;;;8.37;4.30;;;7.20;1.00;;;;;;6338769;22;20155;-82
2022/11/21 04:01:42;;;;;;;17.20;5.83;;;7.20;1.00;;;;;;6340561;22;20147;-82
2022/11/21 04:04:07;;;;;;;11.70;5.20;;;7.20;1.00;;;;;;6312862;22;20194;-82
2022/11/21 04:06:33;;;;;;;8.83;4.60;;;7.20;1.00;;;;;;6341405;22;20158;-80
2022/11/21 04:08:58;;;;;;;13.40;4.83;;;7.30;1.00;;;;;;6342078;22;20166;-84
2022/11/21 04:11:24;;;;;;;14.30;6.47;;;7.30;1.00;;;;;;6341282;22;20154;-82
2022/11/21 04:13:53;;;;;;;12.90;5.10;;;7.30;1.00;;;;;;6339367;22;20264;-83
2022/11/21 04:16:19;;;;;;;11.38;5.97;;;7.20;1.00;;;;;;6341329;22;20151;-82
2022/11/21 04:18:44;;;;;;;20.77;6.97;;;7.30;1.00;;;;;;6341232;22;20204;-83
2022/11/21 04:21:10;;;;;;;11.50;6.67;;;7.30;1.00;;;;;;6339122;22;20148;-82
2022/11/21 04:23:35;;;;;;;18.13;7.60;;;7.30;1.00;;;;;;6342021;22;20186;-82
2022/11/21 04:26:01;;;;;;;17.63;6.53;;;7.30;1.00;;;;;;6340318;22;20494;-82
2022/11/21 04:28:27;;;;;;;17.13;6.93;;;7.30;1.00;;;;;;6341417;22;20170;-82
2022/11/21 04:30:52;;;;;;;11.80;7.03;;;7.30;1.00;;;;;;6340645;22;20175;-82
2022/11/21 04:33:18;;;;;;;13.00;6.10;;;7.30;1.00;;;;;;6341679;22;20167;-82
2022/11/21 04:35:45;;;;;;;9.18;5.65;;;7.30;1.00;;;;;;6341065;22;20173;-82
2022/11/21 04:38:11;;;;;;;13.05;5.85;;;7.30;1.00;;;;;;6311214;22;20183;-81
2022/11/21 04:40:43;;;;;;;13.47;6.00;;;7.40;1.00;;;;;;6342252;22;20177;-82
2022/11/21 04:43:08;;;;;;;9.15;6.00;;;7.40;1.00;;;;;;6312403;22;20175;-82
2022/11/21 04:45:34;;;;;;;18.90;6.80;;;7.40;1.00;;;;;;6341855;22;20462;-83
2022/11/21 04:47:59;;;;;;;12.90;6.57;;;7.40;1.00;;;;;;6340471;22;20174;-82
2022/11/21 04:50:27;;;;;;;9.43;6.93;;;7.40;1.00;;;;;;6339921;22;20309;-82
2022/11/21 04:52:54;;;;;;;10.57;5.28;;;7.40;1.00;;;;;;6341554;22;20173;-83
2022/11/21 04:55:21;;;;;;;17.70;8.63;;;7.40;1.00;;;;;;6340825;22;20166;-82
2022/11/21 04:57:59;;;;;;;17.35;8.32;;;7.40;1.00;;;;;;6341314;22;20159;-83
2022/11/21 05:00:24;;;;;;;21.25;8.10;;;7.40;1.00;;;;;;6338992;22;20219;-82
2022/11/21 05:02:50;;;;;;;25.27;8.43;;;7.40;1.00;;;;;;6340678;22;20183;-82
2022/11/21 05:05:18;;;;;;;14.03;8.50;;;7.40;1.00;;;;;;6341994;22;20163;-82
2022/11/21 05:07:44;;;;;;;12.73;8.00;;;7.40;1.00;;;;;;6312274;22;20296;-84
2022/11/21 05:10:10;;;;;;;16.20;8.83;;;7.40;1.00;;;;;;6340378;22;20179;-82
2022/11/21 05:15:20;;;;;;;15.98;9.75;;;7.40;1.00;;;;;;6340788;22;20178;-82
2022/11/21 05:17:45;;;;;;;18.63;9.30;;;7.40;1.00;;;;;;6338385;22;20638;-82
2022/11/21 05:20:12;;;;;;;15.33;9.57;;;7.40;1.00;;;;;;6312229;22;20155;-82
2022/11/21 05:22:37;;;;;;;18.20;10.27;;;7.40;1.00;;;;;;6313083;22;20565;-82
2022/11/21 05:25:03;;;;;;;18.83;10.20;;;7.40;1.00;;;;;;6340772;22;20147;-84
2022/11/21 05:27:29;;;;;;;14.80;9.52;;;7.40;1.00;;;;;;6342057;22;20228;-82
2022/11/21 05:29:54;;;;;;;18.20;10.40;;;7.40;1.00;;;;;;6313886;22;20600;-83
2022/11/21 05:32:20;;;;;;;14.00;9.20;;;7.40;1.00;;;;;;6313927;22;20167;-83
2022/11/21 05:34:46;;;;;;;15.90;9.00;;;7.40;1.00;;;;;;6313711;22;20163;-82
2022/11/21 05:37:11;;;;;;;15.70;8.80;;;7.40;1.00;;;;;;6343033;22;20374;-83
2022/11/21 05:39:37;;;;;;;12.13;8.60;;;7.40;1.00;;;;;;6341139;22;20471;-83
2022/11/21 05:42:02;;;;;;;22.47;9.87;;;7.30;1.00;;;;;;6343932;22;20163;-84
2022/11/21 05:44:28;;;;;;;19.23;11.03;;;7.40;1.00;;;;;;6342483;22;20147;-84
2022/11/21 05:46:53;;;;;;;14.93;9.60;;;7.30;1.00;;;;;;6315451;22;20151;-83
2022/11/21 05:49:19;;;;;;;25.73;9.67;;;7.30;1.00;;;;;;6344596;22;20185;-81
2022/11/21 05:51:44;;;;;;;13.53;8.30;;;7.30;1.00;;;;;;6343516;22;20158;-84
2022/11/21 05:54:14;;;;;;;13.20;8.33;;;7.30;1.00;;;;;;6341677;22;20154;-83
2022/11/21 05:56:39;;;;;;;18.80;8.77;;;7.30;1.00;;;;;;6315692;22;20179;-83
2022/11/21 05:59:05;;;;;;;11.20;8.00;;;7.20;1.00;;;;;;6343130;22;20147;-83
2022/11/21 06:04:18;;;;;;;13.07;7.93;;;7.10;1.00;;;;;;6354038;22;20472;-82
2022/11/21 06:13:52;;;;;;;14.63;7.22;;;7.00;1.00;;;;;;6200527;23;20279;-82
2022/11/21 06:20:59;;;;;;;;;;;;;;;;;;;;;
2022/11/21 06:23:31;;;;;;;13.95;7.10;;;7.10;1.00;;;;;;6200697;22;20217;-82
2022/11/21 06:49:23;;;;;;;;;;;;;;;;;;;;;
2022/11/21 06:52:07;;;;;;;10.77;7.82;;;7.20;1.00;;;;;;6330963;22;20151;-82
2022/11/21 06:58:55;;;;;;;9.10;6.88;;;7.20;1.00;;;;;;5994177;23;20167;-82
2022/11/21 07:01:48;;;;;;;;;;;;;;;;;;;;;
2022/11/21 07:18:36;;;;;;;14.85;8.23;;;7.40;1.00;;;;;;6159840;22;20146;-83
2022/11/21 07:24:11;;;;;;;17.23;10.07;;;7.50;1.00;;;;;;6315477;22;20174;-83
2022/11/21 07:26:48;;;;;;;13.77;9.20;;;7.40;1.00;;;;;;6332202;22;20188;-83
2022/11/21 07:29:19;;;;;;;18.63;10.25;;;7.50;1.00;;;;;;6333335;22;20249;-83
2022/11/21 07:31:45;;;;;;;14.10;9.32;;;7.50;1.00;;;;;;6331655;22;20182;-83
2022/11/21 07:34:27;;;;;;;18.23;10.83;;;7.50;1.00;;;;;;6330378;22;20230;-84
2022/11/21 07:40:34;;;;;;;15.52;10.63;;;7.50;1.00;;;;;;6342433;22;20251;-84
2022/11/21 07:47:18;;;;;;;15.43;11.55;;;7.50;1.00;;;;;;6360530;22;20150;-84
2022/11/21 07:50:10;;;;;;;19.23;11.23;;;7.60;1.00;;;;;;6357941;22;20163;-84
2022/11/21 07:53:06;;;;;;;13.75;11.40;;;7.60;1.00;;;;;;6304347;22;20182;-84
2022/11/21 07:55:59;;;;;;;17.15;10.30;;;7.60;1.00;;;;;;6360426;22;20173;-84
2022/11/21 07:58:59;;;;;;;18.65;11.05;;;7.70;1.00;;;;;;6330210;22;20162;-84
2022/11/21 08:01:42;;;;;;;15.95;10.00;;;7.80;1.00;;;;;;6318623;22;20154;-84
2022/11/21 08:04:44;;;;;;;;;;;;;;;;;;;;;
2022/11/21 08:07:54;;;;;;;;;;;;;;;;;;;;;
2022/11/21 08:10:35;;;;;;;20.65;11.02;;;7.80;1.00;;;;;;6358011;22;20151;-84
2022/11/21 08:13:23;;;;;;;28.15;12.38;;;7.80;1.00;;;;;;6359737;22;20170;-84
2022/11/21 08:16:28;;;;;;;25.73;11.40;;;7.80;1.00;;;;;;6326314;22;20161;-84
2022/11/21 08:19:28;;;;;;;23.20;11.23;;;7.90;1.00;;;;;;6331269;22;20161;-83
2022/11/21 08:22:18;;;;;;;18.45;9.57;;;7.90;1.00;;;;;;6347143;22;20155;-85
2022/11/21 08:24:53;;;;;;;15.30;10.07;;;8.10;1.00;;;;;;6357352;22;20170;-84
2022/11/21 08:27:34;;;;;;;17.55;10.45;;;8.20;1.00;;;;;;6331210;22;20154;-84
2022/11/21 08:30:12;;;;;;;12.80;8.75;;;8.20;1.00;;;;;;6330222;22;20155;-84
2022/11/21 08:32:49;;;;;;;14.20;8.20;;;8.30;1.00;;;;;;6329825;22;20193;-84
2022/11/21 08:35:45;;;;;;;16.33;9.52;;;8.20;1.00;;;;;;6329953;22;20775;-84
2022/11/21 08:38:16;;;;;;;20.35;9.23;;;8.20;99.90;;;;;;6357138;22;20199;-84
2022/11/21 08:42:01;;;;;;;25.58;9.25;;;8.20;99.90;;;;;;6328104;22;20163;-83
2022/11/21 08:43:59;;;;;;;15.38;7.80;;;8.20;99.90;;;;;;6352766;22;20182;-84
2022/11/21 08:46:29;;;;;;;17.05;8.43;;;8.20;99.90;;;;;;6357005;22;20150;-84
2022/11/21 08:49:05;;;;;;;11.27;7.17;;;8.20;99.90;;;;;;6358053;22;20214;-84
2022/11/21 09:21:41;;;;;;;9.13;5.20;;;14.00;1.00;;;;;;4988763;28;20519;-83
2022/11/21 09:24:23;;;;;;;7.27;4.00;;;13.50;1.00;;;;;;4957342;28;20468;-83
2022/11/21 09:34:10;;;;;;;;;;;;;;;;;;;;;
2022/11/21 09:40:21;;;;;;;7.50;4.23;;;13.00;1.00;;;;;;5054586;28;20440;-83
2022/11/21 09:49:44;;;;;;;6.17;3.33;;;12.60;1.00;;;;;;5022856;28;20437;-83
2022/11/21 09:59:47;;;;;;;4.90;3.50;;;12.80;1.00;;;;;;4972305;28;20444;-83
2022/11/21 10:06:10;;;;;;;;;;;;;;;;;;;;;
2022/11/21 10:09:26;;;;;;;9.00;3.40;;;12.80;1.00;;;;;;5013200;28;20511;-83
2022/11/21 10:12:47;;;;;;;5.67;3.10;;;12.70;1.00;;;;;;5038814;28;20452;-84
2022/11/21 10:15:52;;;;;;;7.20;3.27;;;12.50;1.00;;;;;;4944823;29;20508;-83
2022/11/21 10:22:56;;;;;;;4.33;2.53;;;12.00;1.00;;;;;;4879920;29;20475;-83
2022/11/21 10:35:20;;;;;;;10.57;3.10;;;11.80;1.00;;;;;;5229869;22;20499;-82
2022/11/21 10:38:49;;;;;;;12.90;2.83;;;11.80;1.00;;;;;;5044781;28;20444;-83
2022/11/21 10:42:13;;;;;;;7.63;2.73;;;11.90;1.00;;;;;;4957905;28;20538;-82
2022/11/21 10:45:28;;;;;;;10.73;3.03;;;12.00;1.00;;;;;;4995947;28;20449;-82
2022/11/21 10:48:18;;;;;;;4.30;2.23;;;12.10;1.00;;;;;;5006277;28;20512;-82
2022/11/21 10:51:43;;;;;;;6.53;2.63;;;12.30;1.00;;;;;;5001182;28;20977;-82
2022/11/21 10:57:53;;;;;;;8.80;3.20;;;12.50;1.00;;;;;;5042501;28;21394;-82
2022/11/21 11:03:52;;;;;;;7.53;2.10;;;13.30;34.40;;;;;;5042034;28;20455;-82
2022/11/21 11:09:33;;;;;;;6.40;3.53;;;16.70;1.00;;;;;;5032818;28;20415;-82
2022/11/21 11:15:59;;;;;;;6.57;2.87;;;19.40;99.90;;;;;;5040957;28;20446;-83
2022/11/21 11:18:32;;;;;;;3.03;1.70;;;20.70;99.90;;;;;;5022135;28;20562;-83
2022/11/21 11:21:49;;;;;;;4.43;1.80;;;21.30;99.90;;;;;;5028396;28;20461;-83
2022/11/21 11:27:55;;;;;;;6.03;1.97;;;21.80;99.90;;;;;;4962577;28;20438;-83
2022/11/21 11:34:38;;;;;;;;;;;;;;;;;;;;;
2022/11/21 11:41:12;;;;;;;6.03;2.17;;;22.30;99.90;;;;;;5040083;28;20901;-83
2022/11/21 11:51:48;;;;;;;3.00;1.33;;;21.20;99.90;;;;;;4997955;28;20826;-83
2022/11/21 11:55:24;;;;;;;;;;;;;;;;;;;;;
2022/11/21 12:01:19;;;;;;;4.90;1.97;;;22.30;99.90;;;;;;5002678;28;20464;-83
2022/11/21 12:06:20;;;;;;;4.20;1.70;;;22.20;99.90;;;;;;5051896;28;20467;-82
2022/11/21 12:08:54;;;;;;;4.17;1.53;;;22.40;99.90;;;;;;5054086;28;20440;-80
2022/11/21 12:18:12;;;;;;;3.60;2.10;;;22.50;99.90;;;;;;5034947;28;20552;-82
2022/11/21 12:20:56;;;;;;;5.93;1.27;;;22.20;99.90;;;;;;5006306;28;20999;-81
2022/11/21 12:23:26;;;;;;;3.37;1.27;;;22.10;99.90;;;;;;5043944;28;20436;-81
2022/11/21 12:26:14;;;;;;;2.63;0.90;;;22.10;99.90;;;;;;5050951;28;20930;-81
2022/11/21 12:28:55;;;;;;;4.13;1.10;;;22.00;99.90;;;;;;5046369;28;20450;-80
2022/11/21 12:31:35;;;;;;;5.00;2.53;;;21.50;99.90;;;;;;5045448;28;20468;-84
2022/11/21 12:34:41;;;;;;;4.67;1.73;;;21.10;99.90;;;;;;5042543;28;20471;-83
2022/11/21 12:37:36;;;;;;;8.63;1.30;;;20.90;99.90;;;;;;4987160;28;20435;-84
2022/11/21 12:40:05;;;;;;;3.30;1.27;;;20.80;99.90;;;;;;5048965;28;20439;-83
2022/11/21 12:43:18;;;;;;;2.80;1.00;;;20.60;99.90;;;;;;5044501;28;20456;-81
2022/11/21 12:46:14;;;;;;;4.70;1.20;;;20.30;99.90;;;;;;5046830;28;20469;-83
2022/11/21 12:55:07;;;;;;;3.93;1.00;;;19.10;99.90;;;;;;5055027;28;20822;-83
2022/11/21 12:58:01;;;;;;;3.50;1.07;;;18.60;99.90;;;;;;5044928;28;20449;-84
2022/11/21 13:00:51;;;;;;;3.10;1.40;;;18.30;99.90;;;;;;5052749;28;20466;-84
2022/11/21 13:03:26;;;;;;;2.63;1.10;;;17.90;99.90;;;;;;5046390;28;20510;-82
2022/11/21 13:05:54;;;;;;;3.00;2.73;;;17.50;99.90;;;;;;5055445;28;20495;-84
2022/11/21 13:08:33;;;;;;;3.40;1.60;;;16.90;99.90;;;;;;5053865;28;20439;-83
2022/11/21 13:14:11;;;;;;;3.97;3.10;;;16.10;99.90;;;;;;5046450;28;20464;-84
2022/11/21 13:16:38;;;;;;;5.13;2.00;;;15.60;99.90;;;;;;5057323;28;20412;-84
2022/11/21 13:19:16;;;;;;;4.37;2.17;;;15.30;99.90;;;;;;5048711;28;20466;-84
2022/11/21 13:21:47;;;;;;;5.03;4.23;;;14.90;99.90;;;;;;5048208;28;20505;-83
2022/11/21 13:24:44;;;;;;;4.90;3.00;;;14.60;99.90;;;;;;5048258;28;20493;-83
2022/11/21 13:27:34;;;;;;;5.47;2.97;;;14.40;99.90;;;;;;5038922;28;20501;-83
2022/11/21 13:30:06;;;;;;;6.33;3.47;;;14.20;99.90;;;;;;5041604;28;20431;-84
2022/11/21 13:32:52;;;;;;;5.70;3.00;;;14.10;99.90;;;;;;5048750;28;20473;-83
2022/11/21 13:35:18;;;;;;;6.03;3.50;;;13.90;99.90;;;;;;5029602;28;20451;-83
2022/11/21 13:38:01;;;;;;;5.10;3.17;;;13.80;99.90;;;;;;5051203;28;20431;-83
2022/11/21 13:40:28;;;;;;;5.60;3.13;;;13.70;99.90;;;;;;5061561;28;20195;-82
2022/11/21 13:43:18;;;;;;;9.03;4.90;;;13.60;99.90;;;;;;5054844;28;20440;-83
2022/11/21 13:45:44;;;;;;;4.00;2.53;;;13.50;99.90;;;;;;5044636;28;20458;-85
2022/11/21 13:48:16;;;;;;;3.63;2.37;;;13.30;99.90;;;;;;5051383;28;20433;-83
2022/11/21 13:50:56;;;;;;;8.43;1.90;;;13.20;99.90;;;;;;5051809;28;20184;-82
2022/11/21 13:53:40;;;;;;;3.67;1.30;;;13.00;99.90;;;;;;5051069;28;20463;-82
2022/11/21 13:56:47;;;;;;;12.30;2.07;;;12.80;99.90;;;;;;5050334;28;20459;-82
2022/11/21 13:59:41;;;;;;;4.63;1.30;;;12.60;99.90;;;;;;5047239;28;20458;-83
2022/11/21 14:02:36;;;;;;;5.90;1.53;;;12.40;99.90;;;;;;5050426;28;20486;-82
2022/11/21 14:05:44;;;;;;;6.30;1.77;;;12.20;99.90;;;;;;5059163;28;20459;-83
2022/11/21 14:08:22;;;;;;;18.60;1.90;;;12.00;99.90;;;;;;5051361;28;20431;-83
2022/11/21 14:10:50;;;;;;;3.83;1.80;;;11.90;99.90;;;;;;5054102;28;20604;-82
2022/11/21 14:13:33;;;;;;;9.23;2.10;;;11.80;99.90;;;;;;5046730;28;20527;-82
2022/11/21 14:16:10;;;;;;;5.53;2.67;;;11.80;99.90;;;;;;5048220;28;20467;-83
2022/11/21 14:18:41;;;;;;;4.60;2.63;;;11.80;99.90;;;;;;5051157;28;20922;-82
2022/11/21 14:21:18;;;;;;;3.23;1.83;;;11.60;99.90;;;;;;5049432;28;21184;-83
2022/11/21 14:23:44;;;;;;;9.20;4.07;;;11.40;99.90;;;;;;5038815;28;20443;-80
2022/11/21 14:26:13;;;;;;;12.17;9.10;;;11.30;99.90;;;;;;5056023;28;20452;-83
2022/11/21 14:28:39;;;;;;;15.87;14.50;;;11.20;99.90;;;;;;5037878;28;20456;-81
2022/11/21 14:31:10;;;;;;;9.80;2.23;;;11.20;99.90;;;;;;5031491;28;20432;-82
2022/11/21 14:33:40;;;;;;;6.57;1.87;;;11.10;99.90;;;;;;5051806;28;20185;-81
2022/11/21 14:36:28;;;;;;;5.90;1.50;;;11.00;99.90;;;;;;5058601;28;20486;-81
2022/11/21 14:38:59;;;;;;;13.43;2.00;;;10.90;99.90;;;;;;5051087;28;20431;-82
2022/11/21 14:41:25;;;;;;;3.77;2.17;;;10.90;99.90;;;;;;5025409;28;20461;-82
2022/11/21 14:44:00;;;;;;;5.13;1.90;;;10.80;99.90;;;;;;5040357;28;20999;-81
2022/11/21 14:46:32;;;;;;;6.17;1.60;;;10.70;99.90;;;;;;5018671;28;20184;-81
2022/11/21 14:49:16;;;;;;;3.40;1.70;;;10.60;99.90;;;;;;5044577;28;20501;-81
2022/11/21 14:51:44;;;;;;;6.40;2.20;;;10.50;99.90;;;;;;5027262;28;20808;-81
2022/11/21 14:54:17;;;;;;;8.87;2.10;;;10.40;1.00;;;;;;5020142;28;20525;-81
2022/11/21 14:56:46;;;;;;;4.97;1.80;;;10.40;1.00;;;;;;5042610;28;20506;-81
2022/11/21 14:59:24;;;;;;;5.93;2.23;;;10.30;1.00;;;;;;5041109;28;20501;-82
2022/11/21 15:02:02;;;;;;;6.80;2.53;;;10.20;1.00;;;;;;5044502;28;20459;-82
2022/11/21 15:04:30;;;;;;;6.83;2.50;;;10.10;1.00;;;;;;5033620;28;20465;-82
2022/11/21 15:06:56;;;;;;;5.93;2.83;;;10.10;1.00;;;;;;5048282;28;20423;-82
2022/11/21 15:09:22;;;;;;;5.37;3.00;;;10.00;1.00;;;;;;5050736;28;20790;-83
2022/11/21 15:12:04;;;;;;;5.63;3.07;;;9.90;1.00;;;;;;5039649;28;20444;-82
2022/11/21 15:14:47;;;;;;;15.60;3.50;;;9.80;1.00;;;;;;5047313;28;20448;-82
2022/11/21 15:17:17;;;;;;;8.93;2.97;;;9.80;1.00;;;;;;5040376;28;20531;-81
2022/11/21 15:19:45;;;;;;;6.77;2.33;;;9.70;43.20;;;;;;5042074;28;20459;-82
2022/11/21 15:22:28;;;;;;;7.63;2.53;;;9.70;42.60;;;;;;5028963;28;20468;-82
2022/11/21 15:25:06;;;;;;;6.07;3.33;;;9.70;99.90;;;;;;5050615;28;20448;-82
2022/11/21 15:27:33;;;;;;;9.70;2.73;;;9.60;99.90;;;;;;5041150;28;20601;-80
2022/11/21 15:30:08;;;;;;;9.00;5.07;;;9.60;99.90;;;;;;5042474;28;21119;-81
2022/11/21 15:32:34;;;;;;;15.27;2.63;;;9.60;99.90;;;;;;5050473;28;20842;-82
2022/11/21 15:35:26;;;;;;;10.23;3.07;;;9.60;99.90;;;;;;5046297;28;20476;-82
2022/11/21 15:37:52;;;;;;;4.30;2.73;;;9.60;99.90;;;;;;5040639;28;20539;-81
2022/11/21 15:40:19;;;;;;;7.10;2.97;;;9.50;99.90;;;;;;5048651;28;20485;-80
2022/11/21 15:42:45;;;;;;;4.63;2.43;;;9.50;99.90;;;;;;5044021;28;20174;-81
2022/11/21 15:45:13;;;;;;;12.03;4.07;;;9.50;99.90;;;;;;5049711;28;20471;-82
2022/11/21 15:47:39;;;;;;;18.37;12.13;;;9.50;99.90;;;;;;5045637;28;20675;-82
2022/11/21 15:50:05;;;;;;;5.83;2.90;;;9.50;99.90;;;;;;5052016;28;20460;-82
2022/11/21 15:52:30;;;;;;;8.70;3.37;;;9.50;1.00;;;;;;5043862;28;20193;-81
2022/11/21 15:54:56;;;;;;;6.80;4.07;;;9.50;1.00;;;;;;5043039;28;20886;-82
2022/11/21 15:57:21;;;;;;;17.37;8.03;;;9.50;1.00;;;;;;5029867;28;20239;-81
2022/11/21 15:59:47;;;;;;;9.53;5.27;;;9.50;1.00;;;;;;5048715;28;20232;-82
2022/11/21 16:02:13;;;;;;;6.77;4.30;;;9.50;1.00;;;;;;5039951;28;20209;-82
2022/11/21 16:04:39;;;;;;;12.87;3.70;;;9.50;1.00;;;;;;5044358;28;20212;-83
2022/11/21 16:07:04;;;;;;;5.80;3.72;;;9.40;1.00;;;;;;5028563;28;21021;-82
2022/11/21 16:09:30;;;;;;;10.47;3.70;;;9.40;1.00;;;;;;5048446;28;20272;-82
2022/11/21 16:11:55;;;;;;;8.93;3.20;;;9.40;99.90;;;;;;5025538;28;20209;-83
2022/11/21 16:14:21;;;;;;;13.50;4.17;;;9.40;99.90;;;;;;5050162;28;20208;-83
2022/11/21 16:16:46;;;;;;;11.80;3.90;;;9.40;99.90;;;;;;5037427;28;20182;-83
2022/11/21 16:19:13;;;;;;;10.43;3.53;;;9.30;99.90;;;;;;5028811;28;20264;-84
2022/11/21 16:21:39;;;;;;;8.53;3.10;;;9.40;99.90;;;;;;5047371;28;20216;-84
2022/11/21 16:24:05;;;;;;;8.80;3.40;;;9.30;99.90;;;;;;5047874;28;20432;-82
2022/11/21 16:26:32;;;;;;;8.80;3.93;;;9.20;1.00;;;;;;5053460;28;20519;-82
2022/11/21 16:28:58;;;;;;;11.20;4.47;;;9.20;1.00;;;;;;5045429;28;20178;-81
2022/11/21 16:31:29;;;;;;;13.15;6.57;;;9.10;1.00;;;;;;5043084;28;20435;-83
2022/11/21 16:33:55;;;;;;;10.75;3.60;;;9.10;6.30;;;;;;5033155;28;20623;-83
2022/11/21 16:36:22;;;;;;;14.77;5.20;;;9.10;98.40;;;;;;5043918;28;20185;-84
2022/11/21 16:38:48;;;;;;;15.20;5.37;;;9.10;99.90;;;;;;5042230;28;20490;-83
2022/11/21 16:41:16;;;;;;;11.40;5.20;;;9.00;99.90;;;;;;5038505;28;20666;-83
2022/11/21 16:43:50;;;;;;;8.70;4.00;;;9.00;99.90;;;;;;5027075;28;20640;-82
2022/11/21 16:46:17;;;;;;;9.57;4.17;;;9.00;99.90;;;;;;5049108;28;20432;-82
2022/11/21 16:48:42;;;;;;;11.25;3.60;;;9.00;99.90;;;;;;5048060;28;20474;-83
2022/11/21 16:51:15;;;;;;;7.20;3.43;;;8.90;1.00;;;;;;5022397;28;20186;-83
2022/11/21 16:53:41;;;;;;;4.65;3.25;;;8.90;1.00;;;;;;5052898;28;20178;-83
2022/11/21 16:56:08;;;;;;;9.43;3.50;;;8.90;1.00;;;;;;5047996;28;20208;-83